KFQD

Rutherford Co - Marchman Field Airport

Rutherfordton, North Carolina, USA
METAR KFQD 191920Z AUTO 17009G17KT 10SM CLR 19/07 A3021 RMK AO2
Observed Flight Rules
Oct-19 @ 19:20 UTC (32 minutes ago) Visual Flight Rules
Wind Visibility Clouds
170° at 9 knots
 Gusting to 17 knots
10 miles
  • Clear skies
Temperatures Readings
Current 19°C / 66°F
Dewpoint 7°C / 45°F
Humidity 46%
Altimeter 30.21" Hg
Pressure 1023 hPa
Elevation 329
METAR KFQD 191920Z AUTO 17009G17KT 10SM CLR 19/07 A3021 RMK AO2
Observed Flight Rules
Oct-19 @ 19:20 UTC
(32 minutes ago)
VFR
Wind Visibility
170° at 9 knots
 Gusting to 17 knots
10 miles
Clouds
  • Clear skies
Temperature Dewpoint
19°C / 66°F 7°C / 45°F
Humidity Altimeter Pressure
46% 30.21" Hg 1023 hPa